Terminal Aerodrome Forecast
Issued by NWS

Home | Current Version | Previous Version | Graphics & Text | Print | Product List | Glossary On
Versions: 1 2 3 4 5 6 7 8 9 10 11 12 13
000
FTUS43 KICT 201740
TAFRSL
TAF
KRSL 201740Z 2018/2118 18028G36KT P6SM SCT045 SCT150
     FM210600 19024G33KT P6SM BKN015
     FM211200 20018G25KT P6SM SCT015 BKN025
     FM211700 33019G27KT P6SM SCT050 SCT100 BKN250=

USA.gov is the U.S. government's official web portal to all federal, state and local government web resources and services.